sensor_id;sensor_type;location;lat;lon;timestamp;temperature;humidity
4727;DHT22;2377;51.734;8.950;2023-03-01T00:01:11;-1.50;1.00
4727;DHT22;2377;51.734;8.950;2023-03-01T00:03:41;-1.50;1.00
4727;DHT22;2377;51.734;8.950;2023-03-01T00:06:10;-1.50;1.00
4727;DHT22;2377;51.734;8.950;2023-03-01T00:08:37;-1.60;1.00
4727;DHT22;2377;51.734;8.950;2023-03-01T00:11:07;-1.60;1.00
4727;DHT22;2377;51.734;8.950;2023-03-01T00:13:36;-1.60;1.00
4727;DHT22;2377;51.734;8.950;2023-03-01T00:16:04;-1.60;1.00
4727;DHT22;2377;51.734;8.950;2023-03-01T00:18:33;-1.70;1.00
4727;DHT22;2377;51.734;8.950;2023-03-01T00:21:00;-1.80;1.00
4727;DHT22;2377;51.734;8.950;2023-03-01T00:23:29;-1.80;1.00
4727;DHT22;2377;51.734;8.950;2023-03-01T00:25:56;-1.80;1.00
4727;DHT22;2377;51.734;8.950;2023-03-01T00:28:23;-1.90;1.00
4727;DHT22;2377;51.734;8.950;2023-03-01T00:30:50;-1.90;1.00
4727;DHT22;2377;51.734;8.950;2023-03-01T00:33:18;-1.90;1.00
4727;DHT22;2377;51.734;8.950;2023-03-01T00:35:45;-2.00;1.00
4727;DHT22;2377;51.734;8.950;2023-03-01T00:38:12;-2.00;1.00
4727;DHT22;2377;51.734;8.950;2023-03-01T00:40:40;-2.00;1.00
4727;DHT22;2377;51.734;8.950;2023-03-01T00:43:08;-2.00;1.00
4727;DHT22;2377;51.734;8.950;2023-03-01T00:45:35;-2.00;1.00
4727;DHT22;2377;51.734;8.950;2023-03-01T00:48:03;-2.10;1.00
4727;DHT22;2377;51.734;8.950;2023-03-01T00:50:30;-2.10;1.00
4727;DHT22;2377;51.734;8.950;2023-03-01T00:52:57;-2.10;1.00
4727;DHT22;2377;51.734;8.950;2023-03-01T00:55:25;-2.20;1.00
4727;DHT22;2377;51.734;8.950;2023-03-01T00:57:54;-2.20;1.00
4727;DHT22;2377;51.734;8.950;2023-03-01T01:00:21;-2.20;1.00
4727;DHT22;2377;51.734;8.950;2023-03-01T01:02:48;-2.30;1.00
4727;DHT22;2377;51.734;8.950;2023-03-01T01:05:16;-2.30;1.00
4727;DHT22;2377;51.734;8.950;2023-03-01T01:07:46;-2.30;1.00
4727;DHT22;2377;51.734;8.950;2023-03-01T01:10:14;-2.30;1.00
4727;DHT22;2377;51.734;8.950;2023-03-01T01:12:43;-2.30;1.00
4727;DHT22;2377;51.734;8.950;2023-03-01T01:15:12;-2.30;1.00
4727;DHT22;2377;51.734;8.950;2023-03-01T01:17:42;-2.30;1.00
4727;DHT22;2377;51.734;8.950;2023-03-01T01:20:10;-2.30;1.00
4727;DHT22;2377;51.734;8.950;2023-03-01T01:22:38;-2.20;1.00
4727;DHT22;2377;51.734;8.950;2023-03-01T01:25:05;-2.20;1.00
4727;DHT22;2377;51.734;8.950;2023-03-01T01:27:33;-2.30;1.00
4727;DHT22;2377;51.734;8.950;2023-03-01T01:30:00;-2.30;1.00
4727;DHT22;2377;51.734;8.950;2023-03-01T01:32:28;-2.30;1.00
4727;DHT22;2377;51.734;8.950;2023-03-01T01:34:56;-2.40;1.00
4727;DHT22;2377;51.734;8.950;2023-03-01T01:37:23;-2.40;1.00
4727;DHT22;2377;51.734;8.950;2023-03-01T01:39:57;-2.30;1.00
4727;DHT22;2377;51.734;8.950;2023-03-01T01:42:25;-2.30;1.00
4727;DHT22;2377;51.734;8.950;2023-03-01T01:48:06;-2.40;1.00
4727;DHT22;2377;51.734;8.950;2023-03-01T01:50:40;-2.40;1.00
4727;DHT22;2377;51.734;8.950;2023-03-01T01:53:12;-2.50;1.00
4727;DHT22;2377;51.734;8.950;2023-03-01T01:55:45;-2.50;1.00
4727;DHT22;2377;51.734;8.950;2023-03-01T01:58:18;-2.50;1.00
4727;DHT22;2377;51.734;8.950;2023-03-01T02:00:48;-2.50;1.00
4727;DHT22;2377;51.734;8.950;2023-03-01T02:03:22;-2.50;1.00
4727;DHT22;2377;51.734;8.950;2023-03-01T02:05:58;-2.50;1.00
4727;DHT22;2377;51.734;8.950;2023-03-01T02:08:33;-2.50;1.00
4727;DHT22;2377;51.734;8.950;2023-03-01T02:11:03;-2.50;1.00
4727;DHT22;2377;51.734;8.950;2023-03-01T02:13:31;-2.50;1.00
4727;DHT22;2377;51.734;8.950;2023-03-01T02:16:02;-2.50;1.00
4727;DHT22;2377;51.734;8.950;2023-03-01T02:18:32;-2.50;1.00
4727;DHT22;2377;51.734;8.950;2023-03-01T02:21:08;-2.40;1.00
4727;DHT22;2377;51.734;8.950;2023-03-01T02:23:43;-2.40;1.00
4727;DHT22;2377;51.734;8.950;2023-03-01T02:26:18;-2.50;1.00
4727;DHT22;2377;51.734;8.950;2023-03-01T02:28:52;-2.50;1.00
4727;DHT22;2377;51.734;8.950;2023-03-01T02:31:20;-2.50;1.00
4727;DHT22;2377;51.734;8.950;2023-03-01T02:34:05;-2.50;1.00
4727;DHT22;2377;51.734;8.950;2023-03-01T02:36:36;-2.60;1.00
4727;DHT22;2377;51.734;8.950;2023-03-01T02:39:06;-2.60;1.00
4727;DHT22;2377;51.734;8.950;2023-03-01T02:41:42;-2.60;1.00
4727;DHT22;2377;51.734;8.950;2023-03-01T02:44:14;-2.60;1.00
4727;DHT22;2377;51.734;8.950;2023-03-01T02:46:43;-2.60;1.00
4727;DHT22;2377;51.734;8.950;2023-03-01T02:49:22;-2.60;1.00
4727;DHT22;2377;51.734;8.950;2023-03-01T02:52:07;-2.60;1.00
4727;DHT22;2377;51.734;8.950;2023-03-01T02:54:57;-2.60;1.00
4727;DHT22;2377;51.734;8.950;2023-03-01T02:57:28;-2.60;1.00
4727;DHT22;2377;51.734;8.950;2023-03-01T03:00:02;-2.60;1.00
4727;DHT22;2377;51.734;8.950;2023-03-01T03:02:34;-2.60;1.00
4727;DHT22;2377;51.734;8.950;2023-03-01T03:05:08;-2.60;1.00
4727;DHT22;2377;51.734;8.950;2023-03-01T03:07:37;-2.60;1.00
4727;DHT22;2377;51.734;8.950;2023-03-01T03:10:09;-2.50;1.00
4727;DHT22;2377;51.734;8.950;2023-03-01T03:12:38;-2.40;1.00
4727;DHT22;2377;51.734;8.950;2023-03-01T03:15:08;-2.50;1.00
4727;DHT22;2377;51.734;8.950;2023-03-01T03:17:39;-2.50;1.00
4727;DHT22;2377;51.734;8.950;2023-03-01T03:20:11;-2.50;1.00
4727;DHT22;2377;51.734;8.950;2023-03-01T03:22:45;-2.50;1.00
4727;DHT22;2377;51.734;8.950;2023-03-01T03:25:13;-2.60;1.00
4727;DHT22;2377;51.734;8.950;2023-03-01T03:27:41;-2.60;1.00
4727;DHT22;2377;51.734;8.950;2023-03-01T03:30:13;-2.70;1.00
4727;DHT22;2377;51.734;8.950;2023-03-01T03:32:45;-2.80;1.00
4727;DHT22;2377;51.734;8.950;2023-03-01T03:35:18;-2.80;1.00
4727;DHT22;2377;51.734;8.950;2023-03-01T03:37:46;-2.80;1.00
4727;DHT22;2377;51.734;8.950;2023-03-01T03:40:29;-2.80;1.00
4727;DHT22;2377;51.734;8.950;2023-03-01T03:42:58;-2.80;1.00
4727;DHT22;2377;51.734;8.950;2023-03-01T03:45:27;-2.80;1.00
4727;DHT22;2377;51.734;8.950;2023-03-01T03:47:54;-2.80;1.00
4727;DHT22;2377;51.734;8.950;2023-03-01T03:50:21;-2.80;1.00
4727;DHT22;2377;51.734;8.950;2023-03-01T03:52:48;-2.90;1.00
4727;DHT22;2377;51.734;8.950;2023-03-01T03:55:15;-3.00;1.00
4727;DHT22;2377;51.734;8.950;2023-03-01T03:57:46;-3.00;1.00
4727;DHT22;2377;51.734;8.950;2023-03-01T04:00:18;-3.00;1.00
4727;DHT22;2377;51.734;8.950;2023-03-01T04:02:48;-3.00;1.00
4727;DHT22;2377;51.734;8.950;2023-03-01T04:05:17;-3.00;1.00
4727;DHT22;2377;51.734;8.950;2023-03-01T04:07:45;-3.00;1.00
4727;DHT22;2377;51.734;8.950;2023-03-01T04:10:15;-3.00;1.00
4727;DHT22;2377;51.734;8.950;2023-03-01T04:12:43;-3.00;1.00
4727;DHT22;2377;51.734;8.950;2023-03-01T04:15:12;-3.00;1.00
4727;DHT22;2377;51.734;8.950;2023-03-01T04:17:39;-3.10;1.00
4727;DHT22;2377;51.734;8.950;2023-03-01T04:20:10;-3.10;1.00
4727;DHT22;2377;51.734;8.950;2023-03-01T04:22:39;-3.10;1.00
4727;DHT22;2377;51.734;8.950;2023-03-01T04:25:08;-3.10;1.00
4727;DHT22;2377;51.734;8.950;2023-03-01T04:27:40;-3.10;1.00
4727;DHT22;2377;51.734;8.950;2023-03-01T04:30:09;-3.20;1.00
4727;DHT22;2377;51.734;8.950;2023-03-01T04:32:37;-3.20;1.00
4727;DHT22;2377;51.734;8.950;2023-03-01T04:35:04;-3.30;1.00
4727;DHT22;2377;51.734;8.950;2023-03-01T04:37:33;-3.30;1.00
4727;DHT22;2377;51.734;8.950;2023-03-01T04:40:00;-3.30;1.00
4727;DHT22;2377;51.734;8.950;2023-03-01T04:42:32;-3.30;1.00
4727;DHT22;2377;51.734;8.950;2023-03-01T04:44:59;-3.30;1.00
4727;DHT22;2377;51.734;8.950;2023-03-01T04:47:26;-3.30;1.00
4727;DHT22;2377;51.734;8.950;2023-03-01T04:49:53;-3.40;1.00
4727;DHT22;2377;51.734;8.950;2023-03-01T04:52:20;-3.40;1.00
4727;DHT22;2377;51.734;8.950;2023-03-01T04:54:48;-3.40;1.00
4727;DHT22;2377;51.734;8.950;2023-03-01T04:57:15;-3.30;1.00
4727;DHT22;2377;51.734;8.950;2023-03-01T04:59:42;-3.30;1.00
4727;DHT22;2377;51.734;8.950;2023-03-01T05:02:10;-3.30;1.00
4727;DHT22;2377;51.734;8.950;2023-03-01T05:04:37;-3.30;1.00
4727;DHT22;2377;51.734;8.950;2023-03-01T05:07:04;-3.30;1.00
4727;DHT22;2377;51.734;8.950;2023-03-01T05:09:31;-3.30;1.00
4727;DHT22;2377;51.734;8.950;2023-03-01T05:11:59;-3.30;1.00
4727;DHT22;2377;51.734;8.950;2023-03-01T05:14:26;-3.30;1.00
4727;DHT22;2377;51.734;8.950;2023-03-01T05:16:54;-3.30;1.00
4727;DHT22;2377;51.734;8.950;2023-03-01T05:19:29;-3.30;1.00
4727;DHT22;2377;51.734;8.950;2023-03-01T05:21:56;-3.40;1.00
4727;DHT22;2377;51.734;8.950;2023-03-01T05:24:32;-3.50;1.00
4727;DHT22;2377;51.734;8.950;2023-03-01T05:27:02;-3.50;1.00
4727;DHT22;2377;51.734;8.950;2023-03-01T05:29:31;-3.50;1.00
4727;DHT22;2377;51.734;8.950;2023-03-01T05:32:01;-3.50;1.00
4727;DHT22;2377;51.734;8.950;2023-03-01T05:34:31;-3.50;1.00
4727;DHT22;2377;51.734;8.950;2023-03-01T05:37:00;-3.50;1.00
4727;DHT22;2377;51.734;8.950;2023-03-01T05:39:29;-3.50;1.00
4727;DHT22;2377;51.734;8.950;2023-03-01T05:41:59;-3.50;1.00
4727;DHT22;2377;51.734;8.950;2023-03-01T05:44:28;-3.60;1.00
4727;DHT22;2377;51.734;8.950;2023-03-01T05:46:56;-3.60;1.00
4727;DHT22;2377;51.734;8.950;2023-03-01T05:49:23;-3.60;1.00
4727;DHT22;2377;51.734;8.950;2023-03-01T05:51:52;-3.60;1.00
4727;DHT22;2377;51.734;8.950;2023-03-01T05:54:20;-3.60;1.00
4727;DHT22;2377;51.734;8.950;2023-03-01T05:56:48;-3.60;1.00
4727;DHT22;2377;51.734;8.950;2023-03-01T05:59:16;-3.70;1.00
4727;DHT22;2377;51.734;8.950;2023-03-01T06:01:43;-3.70;1.00
4727;DHT22;2377;51.734;8.950;2023-03-01T06:04:10;-3.80;1.00
4727;DHT22;2377;51.734;8.950;2023-03-01T06:06:37;-3.70;1.00
4727;DHT22;2377;51.734;8.950;2023-03-01T06:09:05;-3.70;1.00
4727;DHT22;2377;51.734;8.950;2023-03-01T06:11:35;-3.70;1.00
4727;DHT22;2377;51.734;8.950;2023-03-01T06:14:03;-3.70;1.00
4727;DHT22;2377;51.734;8.950;2023-03-01T06:16:33;-3.70;1.00
4727;DHT22;2377;51.734;8.950;2023-03-01T06:19:00;-3.80;1.00
4727;DHT22;2377;51.734;8.950;2023-03-01T06:21:27;-3.80;1.00
4727;DHT22;2377;51.734;8.950;2023-03-01T06:23:54;-3.80;1.00
4727;DHT22;2377;51.734;8.950;2023-03-01T06:26:21;-3.80;1.00
4727;DHT22;2377;51.734;8.950;2023-03-01T06:28:48;-3.80;1.00
4727;DHT22;2377;51.734;8.950;2023-03-01T06:31:15;-3.80;1.50
4727;DHT22;2377;51.734;8.950;2023-03-01T06:33:47;-3.70;1.00
4727;DHT22;2377;51.734;8.950;2023-03-01T06:36:14;-3.70;1.00
4727;DHT22;2377;51.734;8.950;2023-03-01T06:38:44;-3.70;1.00
4727;DHT22;2377;51.734;8.950;2023-03-01T06:41:11;-3.70;1.00
4727;DHT22;2377;51.734;8.950;2023-03-01T06:43:38;-3.60;1.00
4727;DHT22;2377;51.734;8.950;2023-03-01T06:46:05;-3.60;1.00
4727;DHT22;2377;51.734;8.950;2023-03-01T06:48:35;-3.60;1.00
4727;DHT22;2377;51.734;8.950;2023-03-01T06:51:04;-3.60;1.00
4727;DHT22;2377;51.734;8.950;2023-03-01T06:53:31;-3.50;1.00
4727;DHT22;2377;51.734;8.950;2023-03-01T06:55:58;-3.40;1.00
4727;DHT22;2377;51.734;8.950;2023-03-01T06:58:26;-3.30;1.00
4727;DHT22;2377;51.734;8.950;2023-03-01T07:00:53;-3.30;1.00
4727;DHT22;2377;51.734;8.950;2023-03-01T07:03:20;-3.10;1.00
4727;DHT22;2377;51.734;8.950;2023-03-01T07:05:48;-3.10;1.00
4727;DHT22;2377;51.734;8.950;2023-03-01T07:08:18;-3.00;1.00
4727;DHT22;2377;51.734;8.950;2023-03-01T07:10:46;-2.80;1.00
4727;DHT22;2377;51.734;8.950;2023-03-01T07:13:13;-2.60;1.00
4727;DHT22;2377;51.734;8.950;2023-03-01T07:15:40;-2.50;1.00
4727;DHT22;2377;51.734;8.950;2023-03-01T07:18:08;-2.40;1.00
4727;DHT22;2377;51.734;8.950;2023-03-01T07:20:35;-2.30;1.00
4727;DHT22;2377;51.734;8.950;2023-03-01T07:23:02;-2.10;1.00
4727;DHT22;2377;51.734;8.950;2023-03-01T07:25:30;-2.00;1.00
4727;DHT22;2377;51.734;8.950;2023-03-01T07:27:58;-1.80;1.00
4727;DHT22;2377;51.734;8.950;2023-03-01T07:30:25;-1.70;1.00
4727;DHT22;2377;51.734;8.950;2023-03-01T07:32:54;-1.60;1.00
4727;DHT22;2377;51.734;8.950;2023-03-01T07:35:22;-1.50;1.00
4727;DHT22;2377;51.734;8.950;2023-03-01T07:37:50;-1.30;1.00
4727;DHT22;2377;51.734;8.950;2023-03-01T07:40:17;-1.10;1.00
4727;DHT22;2377;51.734;8.950;2023-03-01T07:42:46;-1.00;1.00
4727;DHT22;2377;51.734;8.950;2023-03-01T07:45:13;-0.90;1.00
4727;DHT22;2377;51.734;8.950;2023-03-01T07:47:40;-0.80;1.00
4727;DHT22;2377;51.734;8.950;2023-03-01T07:50:08;-0.60;1.00
4727;DHT22;2377;51.734;8.950;2023-03-01T07:52:36;-0.60;1.00
4727;DHT22;2377;51.734;8.950;2023-03-01T07:55:04;-0.50;1.00
4727;DHT22;2377;51.734;8.950;2023-03-01T07:57:31;-0.50;1.00
4727;DHT22;2377;51.734;8.950;2023-03-01T08:00:00;-0.40;1.00
4727;DHT22;2377;51.734;8.950;2023-03-01T08:02:27;-0.30;1.00
4727;DHT22;2377;51.734;8.950;2023-03-01T08:04:54;-0.20;1.00
4727;DHT22;2377;51.734;8.950;2023-03-01T08:07:21;-0.10;1.00
4727;DHT22;2377;51.734;8.950;2023-03-01T08:09:48;0.00;1.00
4727;DHT22;2377;51.734;8.950;2023-03-01T08:12:15;0.10;1.00
4727;DHT22;2377;51.734;8.950;2023-03-01T08:14:42;0.20;1.00
4727;DHT22;2377;51.734;8.950;2023-03-01T08:17:13;0.30;1.00
4727;DHT22;2377;51.734;8.950;2023-03-01T08:19:40;0.40;1.00
4727;DHT22;2377;51.734;8.950;2023-03-01T08:22:08;0.50;1.00
4727;DHT22;2377;51.734;8.950;2023-03-01T08:24:35;0.60;1.00
4727;DHT22;2377;51.734;8.950;2023-03-01T08:27:03;0.60;1.00
4727;DHT22;2377;51.734;8.950;2023-03-01T08:29:31;0.80;1.00
4727;DHT22;2377;51.734;8.950;2023-03-01T08:31:59;1.00;1.00
4727;DHT22;2377;51.734;8.950;2023-03-01T08:34:27;1.10;1.00
4727;DHT22;2377;51.734;8.950;2023-03-01T08:36:56;1.30;1.00
4727;DHT22;2377;51.734;8.950;2023-03-01T08:39:23;1.50;1.00
4727;DHT22;2377;51.734;8.950;2023-03-01T08:41:50;1.60;1.00
4727;DHT22;2377;51.734;8.950;2023-03-01T08:44:17;1.90;1.00
4727;DHT22;2377;51.734;8.950;2023-03-01T08:46:46;2.10;1.00
4727;DHT22;2377;51.734;8.950;2023-03-01T08:49:16;2.40;1.00
4727;DHT22;2377;51.734;8.950;2023-03-01T08:51:47;2.60;1.00
4727;DHT22;2377;51.734;8.950;2023-03-01T08:54:15;2.70;1.00
4727;DHT22;2377;51.734;8.950;2023-03-01T08:56:45;2.80;1.00
4727;DHT22;2377;51.734;8.950;2023-03-01T08:59:14;3.00;1.00
4727;DHT22;2377;51.734;8.950;2023-03-01T09:01:42;3.10;1.00
4727;DHT22;2377;51.734;8.950;2023-03-01T09:04:09;3.30;1.00
4727;DHT22;2377;51.734;8.950;2023-03-01T09:06:37;3.50;1.00
4727;DHT22;2377;51.734;8.950;2023-03-01T09:09:06;3.70;1.00
4727;DHT22;2377;51.734;8.950;2023-03-01T09:11:40;3.90;1.00
4727;DHT22;2377;51.734;8.950;2023-03-01T09:14:07;4.10;1.00
4727;DHT22;2377;51.734;8.950;2023-03-01T09:16:34;4.40;1.00
4727;DHT22;2377;51.734;8.950;2023-03-01T09:19:02;4.50;1.00
4727;DHT22;2377;51.734;8.950;2023-03-01T09:21:30;4.50;1.00
4727;DHT22;2377;51.734;8.950;2023-03-01T09:23:58;4.60;1.00
4727;DHT22;2377;51.734;8.950;2023-03-01T09:26:26;4.60;1.00
4727;DHT22;2377;51.734;8.950;2023-03-01T09:28:55;4.70;1.00
4727;DHT22;2377;51.734;8.950;2023-03-01T09:31:24;4.70;1.00
4727;DHT22;2377;51.734;8.950;2023-03-01T09:33:53;5.00;1.00
4727;DHT22;2377;51.734;8.950;2023-03-01T09:36:22;5.20;1.00
4727;DHT22;2377;51.734;8.950;2023-03-01T09:38:51;5.50;99.90
4727;DHT22;2377;51.734;8.950;2023-03-01T09:41:32;5.60;99.90
4727;DHT22;2377;51.734;8.950;2023-03-01T09:44:18;5.60;99.90
4727;DHT22;2377;51.734;8.950;2023-03-01T09:46:50;5.80;99.90
4727;DHT22;2377;51.734;8.950;2023-03-01T09:49:19;5.80;99.90
4727;DHT22;2377;51.734;8.950;2023-03-01T09:51:56;6.00;99.90
4727;DHT22;2377;51.734;8.950;2023-03-01T09:54:30;6.10;99.90
4727;DHT22;2377;51.734;8.950;2023-03-01T09:57:06;6.10;99.90
4727;DHT22;2377;51.734;8.950;2023-03-01T10:00:00;6.10;99.90
4727;DHT22;2377;51.734;8.950;2023-03-01T10:02:40;6.10;99.90
4727;DHT22;2377;51.734;8.950;2023-03-01T10:05:26;6.50;99.90
4727;DHT22;2377;51.734;8.950;2023-03-01T10:08:14;6.50;99.90
4727;DHT22;2377;51.734;8.950;2023-03-01T10:10:55;6.50;99.90
4727;DHT22;2377;51.734;8.950;2023-03-01T10:13:28;6.30;99.90
4727;DHT22;2377;51.734;8.950;2023-03-01T10:16:05;6.30;99.90
4727;DHT22;2377;51.734;8.950;2023-03-01T10:18:41;6.30;99.90
4727;DHT22;2377;51.734;8.950;2023-03-01T10:21:15;6.30;99.90
4727;DHT22;2377;51.734;8.950;2023-03-01T10:23:44;6.40;99.90
4727;DHT22;2377;51.734;8.950;2023-03-01T10:26:31;6.60;99.90
4727;DHT22;2377;51.734;8.950;2023-03-01T10:29:08;6.70;99.90
4727;DHT22;2377;51.734;8.950;2023-03-01T10:31:40;6.80;99.90
4727;DHT22;2377;51.734;8.950;2023-03-01T10:34:15;6.70;99.90
4727;DHT22;2377;51.734;8.950;2023-03-01T10:36:44;6.50;99.90
4727;DHT22;2377;51.734;8.950;2023-03-01T10:39:17;6.30;99.90
4727;DHT22;2377;51.734;8.950;2023-03-01T10:41:55;6.10;99.90
4727;DHT22;2377;51.734;8.950;2023-03-01T10:44:43;6.10;99.90
4727;DHT22;2377;51.734;8.950;2023-03-01T10:47:17;6.10;99.90
4727;DHT22;2377;51.734;8.950;2023-03-01T10:49:58;6.10;99.90
4727;DHT22;2377;51.734;8.950;2023-03-01T10:52:31;6.00;99.90
4727;DHT22;2377;51.734;8.950;2023-03-01T10:55:04;6.10;99.90
4727;DHT22;2377;51.734;8.950;2023-03-01T10:58:07;6.10;99.90
4727;DHT22;2377;51.734;8.950;2023-03-01T11:00:48;6.10;99.90
4727;DHT22;2377;51.734;8.950;2023-03-01T11:03:21;6.10;99.90
4727;DHT22;2377;51.734;8.950;2023-03-01T11:05:58;6.00;99.90
4727;DHT22;2377;51.734;8.950;2023-03-01T11:08:31;5.80;99.90
4727;DHT22;2377;51.734;8.950;2023-03-01T11:11:05;5.90;99.90
4727;DHT22;2377;51.734;8.950;2023-03-01T11:13:59;6.00;99.90
4727;DHT22;2377;51.734;8.950;2023-03-01T11:16:33;6.10;99.90
4727;DHT22;2377;51.734;8.950;2023-03-01T11:19:17;6.10;99.90
4727;DHT22;2377;51.734;8.950;2023-03-01T11:21:59;6.10;99.90
4727;DHT22;2377;51.734;8.950;2023-03-01T11:24:34;6.20;99.90
4727;DHT22;2377;51.734;8.950;2023-03-01T11:27:16;6.10;99.90
4727;DHT22;2377;51.734;8.950;2023-03-01T11:29:51;6.10;99.90
4727;DHT22;2377;51.734;8.950;2023-03-01T11:32:27;6.10;99.90
4727;DHT22;2377;51.734;8.950;2023-03-01T11:35:03;6.10;99.90
4727;DHT22;2377;51.734;8.950;2023-03-01T11:37:41;6.10;99.90
4727;DHT22;2377;51.734;8.950;2023-03-01T11:40:21;6.00;99.90
4727;DHT22;2377;51.734;8.950;2023-03-01T11:43:01;6.10;99.90
4727;DHT22;2377;51.734;8.950;2023-03-01T11:45:51;6.10;99.90
4727;DHT22;2377;51.734;8.950;2023-03-01T11:48:49;6.00;99.90
4727;DHT22;2377;51.734;8.950;2023-03-01T11:51:31;6.00;99.90
4727;DHT22;2377;51.734;8.950;2023-03-01T11:54:17;5.80;99.90
4727;DHT22;2377;51.734;8.950;2023-03-01T11:57:13;5.90;99.90
4727;DHT22;2377;51.734;8.950;2023-03-01T12:00:02;5.90;99.90
4727;DHT22;2377;51.734;8.950;2023-03-01T12:03:08;5.90;99.90
4727;DHT22;2377;51.734;8.950;2023-03-01T12:09:13;5.90;99.90
4727;DHT22;2377;51.734;8.950;2023-03-01T12:12:03;5.80;99.90
4727;DHT22;2377;51.734;8.950;2023-03-01T12:15:15;5.80;99.90
4727;DHT22;2377;51.734;8.950;2023-03-01T12:18:09;5.80;99.90
4727;DHT22;2377;51.734;8.950;2023-03-01T12:20:51;5.80;99.90
4727;DHT22;2377;51.734;8.950;2023-03-01T12:23:54;5.80;99.90
4727;DHT22;2377;51.734;8.950;2023-03-01T12:26:58;5.80;99.90
4727;DHT22;2377;51.734;8.950;2023-03-01T12:29:45;5.80;99.90
4727;DHT22;2377;51.734;8.950;2023-03-01T12:32:38;5.80;99.90
4727;DHT22;2377;51.734;8.950;2023-03-01T12:35:41;5.80;99.90
4727;DHT22;2377;51.734;8.950;2023-03-01T12:38:32;5.80;99.90
4727;DHT22;2377;51.734;8.950;2023-03-01T12:41:35;5.80;99.90
4727;DHT22;2377;51.734;8.950;2023-03-01T12:47:26;5.70;99.90
4727;DHT22;2377;51.734;8.950;2023-03-01T12:50:11;5.70;99.90
4727;DHT22;2377;51.734;8.950;2023-03-01T12:52:46;5.80;99.90
4727;DHT22;2377;51.734;8.950;2023-03-01T12:55:29;5.80;99.90
4727;DHT22;2377;51.734;8.950;2023-03-01T12:58:06;5.80;99.90
4727;DHT22;2377;51.734;8.950;2023-03-01T13:00:47;5.80;99.90
4727;DHT22;2377;51.734;8.950;2023-03-01T13:03:42;5.80;99.90
4727;DHT22;2377;51.734;8.950;2023-03-01T13:06:34;5.80;99.90
4727;DHT22;2377;51.734;8.950;2023-03-01T13:09:14;5.90;99.90
4727;DHT22;2377;51.734;8.950;2023-03-01T13:11:51;5.90;99.90
4727;DHT22;2377;51.734;8.950;2023-03-01T13:14:45;5.90;99.90
4727;DHT22;2377;51.734;8.950;2023-03-01T13:17:33;5.80;99.90
4727;DHT22;2377;51.734;8.950;2023-03-01T13:20:14;5.90;99.90
4727;DHT22;2377;51.734;8.950;2023-03-01T13:22:45;5.90;99.90
4727;DHT22;2377;51.734;8.950;2023-03-01T13:25:16;5.90;99.90
4727;DHT22;2377;51.734;8.950;2023-03-01T13:27:45;6.00;99.90
4727;DHT22;2377;51.734;8.950;2023-03-01T13:30:41;6.00;99.90
4727;DHT22;2377;51.734;8.950;2023-03-01T13:33:43;6.10;99.90
4727;DHT22;2377;51.734;8.950;2023-03-01T13:36:47;6.10;99.90
4727;DHT22;2377;51.734;8.950;2023-03-01T13:39:30;6.00;99.90
4727;DHT22;2377;51.734;8.950;2023-03-01T13:42:30;6.10;99.90
4727;DHT22;2377;51.734;8.950;2023-03-01T13:45:00;6.10;99.90
4727;DHT22;2377;51.734;8.950;2023-03-01T13:47:29;6.10;99.90
4727;DHT22;2377;51.734;8.950;2023-03-01T13:50:01;6.10;99.90
4727;DHT22;2377;51.734;8.950;2023-03-01T13:52:37;6.10;99.90
4727;DHT22;2377;51.734;8.950;2023-03-01T13:55:18;6.10;99.90
4727;DHT22;2377;51.734;8.950;2023-03-01T13:57:50;6.10;99.90
4727;DHT22;2377;51.734;8.950;2023-03-01T14:00:35;6.00;99.90
4727;DHT22;2377;51.734;8.950;2023-03-01T14:03:10;6.00;99.90
4727;DHT22;2377;51.734;8.950;2023-03-01T14:05:40;6.00;99.90
4727;DHT22;2377;51.734;8.950;2023-03-01T14:08:19;6.00;99.90
4727;DHT22;2377;51.734;8.950;2023-03-01T14:10:57;6.00;99.90
4727;DHT22;2377;51.734;8.950;2023-03-01T14:13:48;6.10;99.90
4727;DHT22;2377;51.734;8.950;2023-03-01T14:16:32;6.10;99.90
4727;DHT22;2377;51.734;8.950;2023-03-01T14:19:15;6.10;99.90
4727;DHT22;2377;51.734;8.950;2023-03-01T14:21:45;6.10;99.90
4727;DHT22;2377;51.734;8.950;2023-03-01T14:24:21;6.10;99.90
4727;DHT22;2377;51.734;8.950;2023-03-01T14:26:49;6.10;99.90
4727;DHT22;2377;51.734;8.950;2023-03-01T14:29:24;6.10;99.90
4727;DHT22;2377;51.734;8.950;2023-03-01T14:31:52;6.10;99.90
4727;DHT22;2377;51.734;8.950;2023-03-01T14:34:23;6.00;99.90
4727;DHT22;2377;51.734;8.950;2023-03-01T14:36:51;6.10;99.90
4727;DHT22;2377;51.734;8.950;2023-03-01T14:39:20;6.00;99.90
4727;DHT22;2377;51.734;8.950;2023-03-01T14:41:52;6.00;99.90
4727;DHT22;2377;51.734;8.950;2023-03-01T14:44:21;6.00;99.90
4727;DHT22;2377;51.734;8.950;2023-03-01T14:46:53;6.00;99.90
4727;DHT22;2377;51.734;8.950;2023-03-01T14:49:25;6.00;99.90
4727;DHT22;2377;51.734;8.950;2023-03-01T14:51:59;6.00;99.90
4727;DHT22;2377;51.734;8.950;2023-03-01T14:54:31;6.00;99.90
4727;DHT22;2377;51.734;8.950;2023-03-01T14:57:06;6.00;99.90
4727;DHT22;2377;51.734;8.950;2023-03-01T14:59:42;6.00;99.90
4727;DHT22;2377;51.734;8.950;2023-03-01T15:02:15;6.00;99.90
4727;DHT22;2377;51.734;8.950;2023-03-01T15:04:50;5.90;99.90
4727;DHT22;2377;51.734;8.950;2023-03-01T15:07:19;5.90;99.90
4727;DHT22;2377;51.734;8.950;2023-03-01T15:09:46;5.90;99.90
4727;DHT22;2377;51.734;8.950;2023-03-01T15:12:37;5.90;99.90
4727;DHT22;2377;51.734;8.950;2023-03-01T15:15:21;5.80;99.90
4727;DHT22;2377;51.734;8.950;2023-03-01T15:17:58;5.80;99.90
4727;DHT22;2377;51.734;8.950;2023-03-01T15:20:30;5.80;99.90
4727;DHT22;2377;51.734;8.950;2023-03-01T15:23:01;5.70;99.90
4727;DHT22;2377;51.734;8.950;2023-03-01T15:25:30;5.70;99.90
4727;DHT22;2377;51.734;8.950;2023-03-01T15:28:00;5.70;99.90
4727;DHT22;2377;51.734;8.950;2023-03-01T15:30:31;5.60;99.90
4727;DHT22;2377;51.734;8.950;2023-03-01T15:33:27;5.60;99.90
4727;DHT22;2377;51.734;8.950;2023-03-01T15:36:00;5.60;99.90
4727;DHT22;2377;51.734;8.950;2023-03-01T15:38:35;5.60;99.90
4727;DHT22;2377;51.734;8.950;2023-03-01T15:41:22;5.60;99.90
4727;DHT22;2377;51.734;8.950;2023-03-01T15:43:51;5.60;99.90
4727;DHT22;2377;51.734;8.950;2023-03-01T15:46:25;5.60;99.90
4727;DHT22;2377;51.734;8.950;2023-03-01T15:48:56;5.50;99.90
4727;DHT22;2377;51.734;8.950;2023-03-01T15:51:32;5.50;99.90
4727;DHT22;2377;51.734;8.950;2023-03-01T15:54:03;5.60;99.90
4727;DHT22;2377;51.734;8.950;2023-03-01T15:56:33;5.60;99.90
4727;DHT22;2377;51.734;8.950;2023-03-01T15:59:01;5.60;99.90
4727;DHT22;2377;51.734;8.950;2023-03-01T16:01:30;5.50;99.90
4727;DHT22;2377;51.734;8.950;2023-03-01T16:03:59;5.40;99.90
4727;DHT22;2377;51.734;8.950;2023-03-01T16:06:26;5.40;99.90
4727;DHT22;2377;51.734;8.950;2023-03-01T16:08:55;5.30;99.90
4727;DHT22;2377;51.734;8.950;2023-03-01T16:11:22;5.30;99.90
4727;DHT22;2377;51.734;8.950;2023-03-01T16:13:49;5.30;99.90
4727;DHT22;2377;51.734;8.950;2023-03-01T16:16:16;5.10;99.90
4727;DHT22;2377;51.734;8.950;2023-03-01T16:18:45;5.10;99.90
4727;DHT22;2377;51.734;8.950;2023-03-01T16:21:19;5.10;99.90
4727;DHT22;2377;51.734;8.950;2023-03-01T16:23:48;5.00;99.90
4727;DHT22;2377;51.734;8.950;2023-03-01T16:26:18;5.00;99.90
4727;DHT22;2377;51.734;8.950;2023-03-01T16:28:46;4.90;99.90
4727;DHT22;2377;51.734;8.950;2023-03-01T16:31:17;4.80;99.90
4727;DHT22;2377;51.734;8.950;2023-03-01T16:33:45;4.70;99.90
4727;DHT22;2377;51.734;8.950;2023-03-01T16:36:16;4.70;99.90
4727;DHT22;2377;51.734;8.950;2023-03-01T16:38:45;4.60;99.90
4727;DHT22;2377;51.734;8.950;2023-03-01T16:41:22;4.60;99.90
4727;DHT22;2377;51.734;8.950;2023-03-01T16:43:50;4.50;99.90
4727;DHT22;2377;51.734;8.950;2023-03-01T16:46:20;4.60;99.90
4727;DHT22;2377;51.734;8.950;2023-03-01T16:48:49;4.50;99.90
4727;DHT22;2377;51.734;8.950;2023-03-01T16:51:19;4.40;99.90
4727;DHT22;2377;51.734;8.950;2023-03-01T16:53:47;4.20;99.90
4727;DHT22;2377;51.734;8.950;2023-03-01T16:56:16;4.00;99.90
4727;DHT22;2377;51.734;8.950;2023-03-01T16:58:45;3.70;99.90
4727;DHT22;2377;51.734;8.950;2023-03-01T17:01:14;3.60;99.90
4727;DHT22;2377;51.734;8.950;2023-03-01T17:03:43;3.60;99.90
4727;DHT22;2377;51.734;8.950;2023-03-01T17:06:13;3.60;99.90